KPHF/PHF METAR and TAF weather

Enter ICAO airport designator
Station Type Date Time Source
KPHF METAR 2021/05/13 18:54 UTC NOAA

KPHF 131854Z 08011KT 10SM CLR 19/02 A3023 RMK AO2 SLP235 T01940022


Station Type Date Time Source
KPHF Decoded METAR 2021/05/13 18:54 UTC NOAA

WILLIAMSBURG INTERNATIONAL AIRPORT , VA, United States (KPHF) 37-08N 76-30W 12M
May 13, 2021 - 02:54 PM EDT / 2021.05.13 1854 UTC
Wind: from the E (080 degrees) at 13 MPH (11 KT):0
Visibility: 10 mile(s):0
Sky conditions: clear
Temperature: 66.9 F (19.4 C)
Dew Point: 36.0 F (2.2 C)
Relative Humidity: 31%
Pressure (altimeter): 30.23 in. Hg (1023 hPa)
ob: KPHF 131854Z 08011KT 10SM CLR 19/02 A3023 RMK AO2 SLP235 T01940022
cycle: 19

Station Type Date Time Source
KPHF TAF 2021/05/13 18:22 UTC NOAA

TAF KPHF 131720Z 1318/1418 06011KT P6SM FEW070
FM140100 08004KT P6SM SKC
FM141000 30004KT P6SM SKC
FM141300 33005KT P6SM SKC
FM141700 05008KT P6SM SCT070

Example: see airport list